createdAt,value
2019-02-19T00:01:49.337Z,4.07
2019-02-19T00:04:17.639Z,4.03
2019-02-19T00:06:47.257Z,4.03
2019-02-19T00:09:15.539Z,4.07
2019-02-19T00:11:43.788Z,4.05
2019-02-19T00:14:12.073Z,4.03
2019-02-19T00:16:40.342Z,4.12
2019-02-19T00:19:09.241Z,4.18
2019-02-19T00:21:37.542Z,3.50
2019-02-19T00:24:05.799Z,4.22
2019-02-19T00:26:34.100Z,4.19
2019-02-19T00:29:02.367Z,4.22
2019-02-19T00:31:30.640Z,4.10
2019-02-19T00:33:58.901Z,4.04
2019-02-19T00:36:27.183Z,4.00
2019-02-19T00:38:55.448Z,3.96
2019-02-19T00:41:23.788Z,3.92
2019-02-19T00:43:52.044Z,3.83
2019-02-19T00:46:20.339Z,3.85
2019-02-19T00:48:48.732Z,3.81
2019-02-19T00:51:17.024Z,3.79
2019-02-19T00:53:45.289Z,3.82
2019-02-19T00:56:13.624Z,3.83
2019-02-19T00:58:41.875Z,3.80
2019-02-19T01:01:10.172Z,3.79
2019-02-19T01:03:38.446Z,3.80
2019-02-19T01:06:09.158Z,3.80
2019-02-19T01:08:37.418Z,3.76
2019-02-19T01:11:05.763Z,3.77
2019-02-19T01:13:34.043Z,3.85
2019-02-19T01:16:02.313Z,3.90
2019-02-19T01:18:30.608Z,3.92
2019-02-19T01:20:58.878Z,3.99
2019-02-19T01:23:27.165Z,3.93
2019-02-19T01:25:55.416Z,3.98
2019-02-19T01:28:23.714Z,3.88
2019-02-19T01:30:53.878Z,3.92
2019-02-19T01:33:22.130Z,3.88
2019-02-19T01:35:50.394Z,3.88
2019-02-19T01:38:18.708Z,3.84
2019-02-19T01:40:46.981Z,3.99
2019-02-19T01:43:16.900Z,4.03
2019-02-19T01:45:45.162Z,4.08
2019-02-19T01:48:13.448Z,4.13
2019-02-19T01:50:43.387Z,4.13
2019-02-19T01:53:11.647Z,4.08
2019-02-19T01:55:39.924Z,4.09
2019-02-19T01:58:08.186Z,4.13
2019-02-19T02:00:36.484Z,4.11
2019-02-19T02:03:04.793Z,4.13
2019-02-19T02:05:33.079Z,4.11
2019-02-19T02:08:01.341Z,4.12
2019-02-19T02:10:29.642Z,4.12
2019-02-19T02:12:57.920Z,4.12
2019-02-19T02:15:26.217Z,4.16
2019-02-19T02:17:54.503Z,4.20
2019-02-19T02:20:22.834Z,4.25
2019-02-19T02:22:51.095Z,4.29
2019-02-19T02:25:19.443Z,4.31
2019-02-19T02:27:47.719Z,4.27
2019-02-19T02:30:16.163Z,4.34
2019-02-19T02:32:44.448Z,4.35
2019-02-19T02:35:12.797Z,4.42
2019-02-19T02:37:41.037Z,4.47
2019-02-19T02:40:09.361Z,4.52
2019-02-19T02:42:37.641Z,4.54
2019-02-19T02:45:05.965Z,4.58
2019-02-19T02:48:11.006Z,4.62
2019-02-19T02:50:39.271Z,4.62
2019-02-19T02:53:07.564Z,4.63
2019-02-19T02:55:35.831Z,4.62
2019-02-19T02:58:04.108Z,4.57
2019-02-19T03:00:32.385Z,4.64
2019-02-19T03:03:00.683Z,4.67
2019-02-19T03:05:28.939Z,4.70
2019-02-19T03:07:58.863Z,4.75
2019-02-19T03:10:27.123Z,4.70
2019-02-19T03:12:55.610Z,4.60
2019-02-19T03:15:23.870Z,4.60
2019-02-19T03:17:52.160Z,4.65
2019-02-19T03:20:20.462Z,4.69
2019-02-19T03:22:48.741Z,4.71
2019-02-19T03:25:17.031Z,4.76
2019-02-19T03:27:45.305Z,4.83
2019-02-19T03:30:13.680Z,4.90
2019-02-19T03:32:41.957Z,4.94
2019-02-19T03:35:10.232Z,4.99
2019-02-19T03:37:38.512Z,5.01
2019-02-19T03:40:07.923Z,5.02
2019-02-19T03:42:36.219Z,5.09
2019-02-19T03:45:06.361Z,5.09
2019-02-19T03:47:34.697Z,5.15
2019-02-19T03:50:03.183Z,5.20
2019-02-19T03:52:31.484Z,5.23
2019-02-19T03:54:59.784Z,5.30
2019-02-19T03:57:28.057Z,5.36
2019-02-19T03:59:56.344Z,5.36
2019-02-19T04:02:24.612Z,5.30
2019-02-19T04:04:52.888Z,5.27
2019-02-19T04:07:21.165Z,5.26
2019-02-19T04:09:49.442Z,5.35
2019-02-19T04:12:19.329Z,5.38
2019-02-19T04:14:47.607Z,5.42
2019-02-19T04:17:15.889Z,5.41
2019-02-19T04:19:44.151Z,5.42
2019-02-19T04:22:12.434Z,5.47
2019-02-19T04:24:40.844Z,5.54
2019-02-19T04:27:09.114Z,5.58
2019-02-19T04:29:37.358Z,5.61
2019-02-19T04:32:05.634Z,5.67
2019-02-19T04:34:33.884Z,5.71
2019-02-19T04:37:02.154Z,5.73
2019-02-19T04:39:30.408Z,5.75
2019-02-19T04:41:58.699Z,5.76
2019-02-19T04:44:26.966Z,5.82
2019-02-19T04:46:55.246Z,5.79
2019-02-19T04:49:28.047Z,5.81
2019-02-19T04:51:56.327Z,5.84
2019-02-19T04:54:24.597Z,5.84
2019-02-19T04:56:52.858Z,5.90
2019-02-19T04:59:21.135Z,5.91
2019-02-19T05:01:49.415Z,5.96
2019-02-19T05:04:17.671Z,5.99
2019-02-19T05:06:45.946Z,6.01
2019-02-19T05:09:14.224Z,6.00
2019-02-19T05:11:42.486Z,5.99
2019-02-19T05:14:10.835Z,6.03
2019-02-19T05:16:41.003Z,6.07
2019-02-19T05:19:09.177Z,6.05
2019-02-19T05:21:37.435Z,6.04
2019-02-19T05:24:05.721Z,6.04
2019-02-19T05:26:33.967Z,6.03
2019-02-19T05:29:02.237Z,6.03
2019-02-19T05:31:30.508Z,6.01
2019-02-19T05:33:58.796Z,6.02
2019-02-19T05:36:27.059Z,6.06
2019-02-19T05:38:55.316Z,6.05
2019-02-19T05:41:23.621Z,6.09
2019-02-19T05:43:51.915Z,6.10
2019-02-19T05:46:23.170Z,6.04
2019-02-19T05:48:51.425Z,5.99
2019-02-19T05:51:19.681Z,5.99
2019-02-19T05:53:47.955Z,5.99
2019-02-19T05:56:16.227Z,5.98
2019-02-19T05:58:44.495Z,5.94
2019-02-19T06:01:12.735Z,5.99
2019-02-19T06:03:41.011Z,5.91
2019-02-19T06:06:10.907Z,5.89
2019-02-19T06:08:39.205Z,5.87
2019-02-19T06:11:07.464Z,5.84
2019-02-19T06:13:35.743Z,5.86
2019-02-19T06:16:04.005Z,5.78
2019-02-19T06:18:32.290Z,5.77
2019-02-19T06:21:00.537Z,5.73
2019-02-19T06:23:28.831Z,5.74
2019-02-19T06:25:57.082Z,5.71
2019-02-19T06:28:25.335Z,5.65
2019-02-19T06:30:53.604Z,5.63
2019-02-19T06:33:21.866Z,5.64
2019-02-19T06:35:50.158Z,5.75
2019-02-19T06:38:18.429Z,5.67
2019-02-19T06:40:46.705Z,5.68
2019-02-19T06:43:14.958Z,5.64
2019-02-19T06:45:45.586Z,5.59
2019-02-19T06:48:13.850Z,5.62
2019-02-19T06:50:42.125Z,5.59
2019-02-19T06:53:10.391Z,5.57
2019-02-19T06:55:38.646Z,5.68
2019-02-19T06:58:06.909Z,5.54
2019-02-19T07:00:35.193Z,5.60
2019-02-19T07:03:07.765Z,5.55
2019-02-19T07:05:36.055Z,5.55
2019-02-19T07:08:05.932Z,5.56
2019-02-19T07:10:34.200Z,5.57
2019-02-19T07:13:02.450Z,5.59
2019-02-19T07:15:30.710Z,5.63
2019-02-19T07:17:58.991Z,5.64
2019-02-19T07:20:27.239Z,5.64
2019-02-19T07:22:55.506Z,5.62
2019-02-19T07:25:23.847Z,5.59
2019-02-19T07:27:52.148Z,5.65
2019-02-19T07:30:20.463Z,5.69
2019-02-19T07:32:48.733Z,5.73
2019-02-19T07:35:17.032Z,5.76
2019-02-19T07:37:45.974Z,5.78
2019-02-19T07:40:14.310Z,5.86
2019-02-19T07:42:42.591Z,5.87
2019-02-19T07:45:12.538Z,5.92
2019-02-19T07:47:40.808Z,5.92
2019-02-19T07:50:10.687Z,5.97
2019-02-19T07:52:38.967Z,6.01
2019-02-19T07:55:09.630Z,6.01
2019-02-19T07:57:37.912Z,6.03
2019-02-19T08:00:11.555Z,6.09
2019-02-19T08:02:39.802Z,6.14
2019-02-19T08:05:08.691Z,6.17
2019-02-19T08:07:36.951Z,6.14
2019-02-19T08:10:08.174Z,6.17
2019-02-19T08:12:36.439Z,6.24
2019-02-19T08:15:09.306Z,6.22
2019-02-19T08:17:37.817Z,6.26
2019-02-19T08:20:15.481Z,6.31
2019-02-19T08:22:38.605Z,6.47
2019-02-19T08:25:08.578Z,6.38
2019-02-19T08:27:36.826Z,6.41
2019-02-19T08:30:07.396Z,6.43
2019-02-19T08:32:35.678Z,6.47
2019-02-19T08:35:04.246Z,6.48
2019-02-19T08:37:32.607Z,6.46
2019-02-19T08:40:00.829Z,6.53
2019-02-19T08:42:29.075Z,6.51
2019-02-19T08:44:57.455Z,6.60
2019-02-19T08:47:25.721Z,6.68
2019-02-19T08:49:54.008Z,6.81
2019-02-19T08:52:22.267Z,6.92
2019-02-19T08:54:50.623Z,6.99
2019-02-19T08:57:18.925Z,6.95
2019-02-19T08:59:47.187Z,6.98
2019-02-19T09:02:15.445Z,7.04
2019-02-19T09:04:43.715Z,7.09
2019-02-19T09:07:12.390Z,7.06
2019-02-19T09:09:40.957Z,7.09
2019-02-19T09:12:09.240Z,7.20
2019-02-19T09:14:37.511Z,7.18
2019-02-19T09:17:05.859Z,7.33
2019-02-19T09:19:34.133Z,7.40
2019-02-19T09:22:02.401Z,7.44
2019-02-19T09:24:33.539Z,7.34
2019-02-19T09:27:02.178Z,7.28
2019-02-19T09:29:30.452Z,7.26
2019-02-19T09:31:58.784Z,7.29
2019-02-19T09:34:27.051Z,7.35
2019-02-19T09:36:55.442Z,7.37
2019-02-19T09:39:23.732Z,7.40
2019-02-19T09:41:52.019Z,7.42
2019-02-19T09:44:23.353Z,7.39
2019-02-19T09:46:51.638Z,7.37
2019-02-19T09:49:19.889Z,7.29
2019-02-19T09:51:48.161Z,7.29
2019-02-19T09:54:16.445Z,7.28
2019-02-19T09:56:44.702Z,7.33
2019-02-19T09:59:14.626Z,7.40
2019-02-19T10:01:42.902Z,7.46
2019-02-19T10:04:11.183Z,7.36
2019-02-19T10:06:39.450Z,7.41
2019-02-19T10:09:09.571Z,7.51
2019-02-19T10:11:37.848Z,7.60
2019-02-19T10:14:06.112Z,7.77
2019-02-19T10:16:41.451Z,7.80
2019-02-19T10:19:04.423Z,7.83
2019-02-19T10:21:32.676Z,7.89
2019-02-19T10:24:00.972Z,8.02
2019-02-19T10:26:29.246Z,7.99
2019-02-19T10:28:57.535Z,7.97
2019-02-19T10:31:26.615Z,7.93
2019-02-19T10:33:54.897Z,7.89
2019-02-19T10:36:23.144Z,7.93
2019-02-19T10:38:51.416Z,7.90
2019-02-19T10:41:19.670Z,8.00
2019-02-19T10:43:47.956Z,8.12
2019-02-19T10:46:16.203Z,8.17
2019-02-19T10:48:44.513Z,8.24
2019-02-19T10:51:12.755Z,8.36
2019-02-19T10:53:41.046Z,8.42
2019-02-19T10:56:09.339Z,8.53
2019-02-19T10:58:37.614Z,8.55
2019-02-19T11:01:05.869Z,8.65
2019-02-19T11:03:34.149Z,8.64
2019-02-19T11:06:02.416Z,8.45
2019-02-19T11:08:30.669Z,8.46
2019-02-19T11:10:58.939Z,8.45
2019-02-19T11:13:27.192Z,8.32
2019-02-19T11:15:55.508Z,8.39
2019-02-19T11:18:28.358Z,8.46
2019-02-19T11:20:53.765Z,8.50
2019-02-19T11:23:22.025Z,8.62
2019-02-19T11:25:50.443Z,8.71
2019-02-19T11:28:18.698Z,8.66
2019-02-19T11:30:47.009Z,8.79
2019-02-19T11:33:15.256Z,8.91
2019-02-19T11:35:43.600Z,8.98
2019-02-19T11:38:11.859Z,9.01
2019-02-19T11:40:40.144Z,9.10
2019-02-19T11:43:08.401Z,9.11
2019-02-19T11:45:36.745Z,9.13
2019-02-19T11:48:04.993Z,9.02
2019-02-19T11:50:33.312Z,9.01
2019-02-19T11:53:01.586Z,8.96
2019-02-19T11:55:29.863Z,9.02
2019-02-19T11:57:58.150Z,9.12
2019-02-19T12:00:40.111Z,8.96
2019-02-19T12:03:08.465Z,8.98
2019-02-19T12:05:36.824Z,8.91
2019-02-19T12:08:05.255Z,8.80
2019-02-19T12:10:33.664Z,8.70
2019-02-19T12:13:01.956Z,8.71
2019-02-19T12:15:35.090Z,8.74
2019-02-19T12:18:00.223Z,8.78
2019-02-19T12:20:28.464Z,8.74
2019-02-19T12:22:57.672Z,8.71
2019-02-19T12:25:25.925Z,8.63
2019-02-19T12:27:54.242Z,8.58
2019-02-19T12:30:22.530Z,8.59
2019-02-19T12:32:50.855Z,8.38
2019-02-19T12:35:19.167Z,8.43
2019-02-19T12:37:47.447Z,8.43
2019-02-19T12:40:15.737Z,8.42
2019-02-19T12:42:44.088Z,8.39
2019-02-19T12:45:15.644Z,8.36
2019-02-19T12:47:43.894Z,8.34
2019-02-19T12:50:16.867Z,8.28
2019-02-19T12:52:45.203Z,8.28
2019-02-19T12:55:13.596Z,8.27
2019-02-19T12:57:41.871Z,8.29
2019-02-19T13:00:21.029Z,8.27
2019-02-19T13:02:49.286Z,8.24
2019-02-19T13:05:17.810Z,8.20
2019-02-19T13:07:47.077Z,8.22
2019-02-19T13:10:15.558Z,8.20
2019-02-19T13:12:45.484Z,8.20
2019-02-19T13:15:17.065Z,8.21
2019-02-19T13:17:45.394Z,8.15
2019-02-19T13:20:15.333Z,8.17
2019-02-19T13:22:43.599Z,8.23
2019-02-19T13:25:12.262Z,8.13
2019-02-19T13:27:40.535Z,8.15
2019-02-19T13:30:12.123Z,8.07
2019-02-19T13:32:40.459Z,8.02
2019-02-19T13:35:10.942Z,8.03
2019-02-19T13:37:39.195Z,7.99
2019-02-19T13:40:11.549Z,7.79
2019-02-19T13:42:39.771Z,7.73
2019-02-19T13:45:10.734Z,7.70
2019-02-19T13:47:38.990Z,7.72
2019-02-19T13:50:32.513Z,7.65
2019-02-19T13:53:05.312Z,7.68
2019-02-19T13:55:35.269Z,7.63
2019-02-19T13:58:03.518Z,7.60
2019-02-19T14:00:33.475Z,7.57
2019-02-19T14:03:01.740Z,7.57
2019-02-19T14:05:30.014Z,7.44
2019-02-19T14:07:58.315Z,7.41
2019-02-19T14:10:28.074Z,7.31
2019-02-19T14:12:56.361Z,7.27
2019-02-19T14:15:42.495Z,7.24
2019-02-19T14:18:12.394Z,7.26
2019-02-19T14:20:51.501Z,7.25
2019-02-19T14:26:22.390Z,7.31
2019-02-19T14:28:57.982Z,7.31
2019-02-19T14:31:27.929Z,7.34
2019-02-19T14:34:13.226Z,7.34
2019-02-19T14:36:58.030Z,7.36
2019-02-19T14:39:39.771Z,7.35
2019-02-19T14:42:12.715Z,7.28
2019-02-19T14:44:45.401Z,7.26
2019-02-19T14:47:30.361Z,7.20
2019-02-19T14:50:02.864Z,7.19
2019-02-19T14:55:34.346Z,7.06
2019-02-19T14:58:21.076Z,7.00
2019-02-19T15:00:59.609Z,6.92
2019-02-19T15:03:32.364Z,6.83
2019-02-19T15:06:02.265Z,6.85
2019-02-19T15:11:13.795Z,6.90
2019-02-19T15:13:43.724Z,6.92
2019-02-19T15:16:29.786Z,6.92
2019-02-19T15:18:59.712Z,6.89
2019-02-19T15:21:45.674Z,6.91
2019-02-19T15:24:15.622Z,6.88
2019-02-19T15:27:00.659Z,6.76
2019-02-19T15:29:36.321Z,6.71
2019-02-19T15:32:09.093Z,6.72
2019-02-19T15:34:39.039Z,6.75
2019-02-19T15:37:18.119Z,6.71
2019-02-19T15:39:51.160Z,6.67
2019-02-19T15:42:23.972Z,6.66
2019-02-19T15:44:53.878Z,6.64
2019-02-19T15:47:23.810Z,6.51
2019-02-19T15:50:05.879Z,6.43
2019-02-19T15:52:51.045Z,6.42
2019-02-19T15:55:38.226Z,6.36
2019-02-19T15:58:07.897Z,6.38
2019-02-19T16:00:46.838Z,6.39
2019-02-19T16:03:19.791Z,6.39
2019-02-19T16:05:54.285Z,6.35
2019-02-19T16:08:30.177Z,6.32
2019-02-19T16:11:06.055Z,6.33
2019-02-19T16:13:46.135Z,6.37
2019-02-19T16:19:43.907Z,6.35
2019-02-19T16:22:22.817Z,6.31
2019-02-19T16:24:55.442Z,6.28
2019-02-19T16:27:25.374Z,6.32
2019-02-19T16:29:55.490Z,6.28
2019-02-19T16:32:28.171Z,6.30
2019-02-19T16:34:58.228Z,6.33
2019-02-19T16:37:37.243Z,6.33
2019-02-19T16:40:17.182Z,6.34
2019-02-19T16:42:52.723Z,6.37
2019-02-19T16:45:28.706Z,6.40
2019-02-19T16:48:01.397Z,6.41
2019-02-19T16:50:34.285Z,6.42
2019-02-19T16:53:20.253Z,6.44
2019-02-19T16:55:53.381Z,6.46
2019-02-19T16:58:23.291Z,6.46
2019-02-19T17:00:56.217Z,6.41
2019-02-19T17:03:38.342Z,6.48
2019-02-19T17:06:10.971Z,6.52
2019-02-19T17:08:40.875Z,6.53
2019-02-19T17:11:31.603Z,6.55
2019-02-19T17:14:10.541Z,6.50
2019-02-19T17:16:43.058Z,6.45
2019-02-19T17:19:18.653Z,6.41
2019-02-19T17:21:54.202Z,6.34
2019-02-19T17:24:26.532Z,6.31
2019-02-19T17:26:59.144Z,6.36
2019-02-19T17:29:45.304Z,6.34
2019-02-19T17:32:25.222Z,6.36
2019-02-19T17:34:55.141Z,6.36
2019-02-19T17:37:33.881Z,6.41
2019-02-19T17:40:09.354Z,6.36
2019-02-19T17:42:42.215Z,6.36
2019-02-19T17:45:16.559Z,6.40
2019-02-19T17:47:55.240Z,6.40
2019-02-19T17:50:25.154Z,6.42
2019-02-19T17:53:00.570Z,6.40
2019-02-19T17:55:32.114Z,6.40
2019-02-19T17:58:09.652Z,6.36
2019-02-19T18:00:55.950Z,6.40
2019-02-19T18:03:38.203Z,6.39
2019-02-19T18:06:08.112Z,6.43
2019-02-19T18:08:40.858Z,6.40
2019-02-19T18:11:13.405Z,6.42
2019-02-19T18:13:46.338Z,6.39
2019-02-19T18:16:34.328Z,6.39
2019-02-19T18:19:03.997Z,6.36
2019-02-19T18:21:32.737Z,6.40
2019-02-19T18:24:01.325Z,6.39
2019-02-19T18:26:31.608Z,6.34
2019-02-19T18:28:59.894Z,6.37
2019-02-19T18:31:28.156Z,6.38
2019-02-19T18:33:58.416Z,6.37
2019-02-19T18:36:26.872Z,6.38
2019-02-19T18:38:58.109Z,6.40
2019-02-19T18:41:26.369Z,6.38
2019-02-19T18:43:54.681Z,6.38
2019-02-19T18:46:23.026Z,6.34
2019-02-19T18:48:51.412Z,6.30
2019-02-19T18:51:21.849Z,6.28
2019-02-19T18:53:50.192Z,6.36
2019-02-19T18:56:18.567Z,6.37
2019-02-19T18:58:46.891Z,6.40
2019-02-19T19:01:16.759Z,6.37
2019-02-19T19:03:45.046Z,6.40
2019-02-19T19:06:13.394Z,6.40
2019-02-19T19:08:41.813Z,6.42
2019-02-19T19:11:10.122Z,6.42
2019-02-19T19:13:38.428Z,6.37
2019-02-19T19:16:06.770Z,6.11
2019-02-19T19:18:35.036Z,6.35
2019-02-19T19:21:07.883Z,6.35
2019-02-19T19:23:33.559Z,5.95
2019-02-19T19:26:02.186Z,6.38
2019-02-19T19:28:30.443Z,6.36
2019-02-19T19:30:58.827Z,6.37
2019-02-19T19:33:27.219Z,6.35
2019-02-19T19:35:55.839Z,6.37
2019-02-19T19:38:24.131Z,6.36
2019-02-19T19:40:52.615Z,6.38
2019-02-19T19:43:22.491Z,6.35
2019-02-19T19:45:53.791Z,6.38
2019-02-19T19:48:22.652Z,6.34
2019-02-19T19:50:50.981Z,6.37
2019-02-19T19:53:31.345Z,6.39
2019-02-19T19:55:59.609Z,6.17
2019-02-19T19:58:27.864Z,6.45
2019-02-19T20:00:56.177Z,6.40
2019-02-19T20:03:24.459Z,6.37
2019-02-19T20:05:52.917Z,6.38
2019-02-19T20:08:21.183Z,6.36
2019-02-19T20:10:49.507Z,6.41
2019-02-19T20:13:17.794Z,6.36
2019-02-19T20:15:47.793Z,6.35
2019-02-19T20:18:16.677Z,6.31
2019-02-19T20:20:45.861Z,6.36
2019-02-19T20:23:15.863Z,6.33
2019-02-19T20:25:46.155Z,6.33
2019-02-19T20:28:14.923Z,6.14
2019-02-19T20:30:43.186Z,6.32
2019-02-19T20:33:11.492Z,6.28
2019-02-19T20:35:41.526Z,6.32
2019-02-19T20:38:09.957Z,6.33
2019-02-19T20:40:38.208Z,6.34
2019-02-19T20:43:06.502Z,6.36
2019-02-19T20:45:37.781Z,6.34
2019-02-19T20:48:06.092Z,6.30
2019-02-19T20:50:34.388Z,6.33
2019-02-19T20:53:02.680Z,6.26
2019-02-19T20:55:36.874Z,6.28
2019-02-19T20:58:02.503Z,6.30
2019-02-19T21:00:30.783Z,6.32
2019-02-19T21:02:59.049Z,6.33
2019-02-19T21:05:27.320Z,6.34
2019-02-19T21:07:55.602Z,6.32
2019-02-19T21:10:23.863Z,6.33
2019-02-19T21:12:52.134Z,6.32
2019-02-19T21:15:20.561Z,6.30
2019-02-19T21:17:50.112Z,6.30
2019-02-19T21:20:18.482Z,6.24
2019-02-19T21:22:46.730Z,6.27
2019-02-19T21:25:15.116Z,6.29
2019-02-19T21:27:43.377Z,6.27
2019-02-19T21:30:13.741Z,6.31
2019-02-19T21:32:41.995Z,6.33
2019-02-19T21:35:10.509Z,6.28
2019-02-19T21:37:39.036Z,6.33
2019-02-19T21:40:12.754Z,6.30
2019-02-19T21:42:41.076Z,6.35
2019-02-19T21:45:11.043Z,6.30
2019-02-19T21:47:39.308Z,6.36
2019-02-19T21:50:09.965Z,6.34
2019-02-19T21:52:38.218Z,6.36
2019-02-19T21:55:08.857Z,6.35
2019-02-19T21:57:37.120Z,6.14
2019-02-19T22:00:13.451Z,6.36
2019-02-19T22:02:41.700Z,6.39
2019-02-19T22:05:10.112Z,6.28
2019-02-19T22:07:38.358Z,6.25
2019-02-19T22:10:09.260Z,6.32
2019-02-19T22:12:37.549Z,6.29
2019-02-19T22:15:10.974Z,6.31
2019-02-19T22:17:39.262Z,6.30
2019-02-19T22:20:18.419Z,6.29
2019-02-19T22:22:46.676Z,6.32
2019-02-19T22:25:14.966Z,6.35
2019-02-19T22:27:43.240Z,6.31
2019-02-19T22:30:14.588Z,6.33
2019-02-19T22:32:42.854Z,6.35
2019-02-19T22:35:14.184Z,6.31
2019-02-19T22:37:42.676Z,6.30
2019-02-19T22:40:11.322Z,6.33
2019-02-19T22:42:39.813Z,6.32
2019-02-19T22:45:09.898Z,6.34
2019-02-19T22:47:38.365Z,6.39
2019-02-19T22:50:08.697Z,6.39
2019-02-19T22:52:37.186Z,6.38
2019-02-19T22:55:11.481Z,6.38
2019-02-19T22:57:40.022Z,6.35
2019-02-19T23:00:16.122Z,6.33
2019-02-19T23:02:46.708Z,6.33
2019-02-19T23:05:15.331Z,6.29
2019-02-19T23:07:43.797Z,6.36
2019-02-19T23:10:12.317Z,6.33
2019-02-19T23:12:40.925Z,6.34
2019-02-19T23:15:09.700Z,6.38
2019-02-19T23:17:38.169Z,6.35
2019-02-19T23:20:07.742Z,6.38
2019-02-19T23:22:36.213Z,6.40
2019-02-19T23:25:06.178Z,6.39
2019-02-19T23:27:34.651Z,6.42
2019-02-19T23:30:03.276Z,6.40
2019-02-19T23:32:31.747Z,6.43
2019-02-19T23:35:11.159Z,6.47
2019-02-19T23:37:39.624Z,6.40
2019-02-19T23:40:08.324Z,6.37
2019-02-19T23:42:36.775Z,6.36
2019-02-19T23:45:07.880Z,6.42
2019-02-19T23:47:36.415Z,6.35
2019-02-19T23:50:07.052Z,6.36
2019-02-19T23:52:35.550Z,6.34
2019-02-19T23:55:05.192Z,6.33
2019-02-19T23:57:33.693Z,6.32
